sensor_id;sensor_type;location;lat;lon;timestamp;temperature;humidity
41922;DHT22;27609;51.002;5.354;2023-07-31T00:00:27;16.40;99.90
41922;DHT22;27609;51.002;5.354;2023-07-31T00:02:52;16.40;99.90
41922;DHT22;27609;51.002;5.354;2023-07-31T00:05:18;16.30;99.90
41922;DHT22;27609;51.002;5.354;2023-07-31T00:07:44;16.30;99.90
41922;DHT22;27609;51.002;5.354;2023-07-31T00:10:09;16.30;99.90
41922;DHT22;27609;51.002;5.354;2023-07-31T00:12:35;16.20;99.90
41922;DHT22;27609;51.002;5.354;2023-07-31T00:15:02;16.30;99.90
41922;DHT22;27609;51.002;5.354;2023-07-31T00:17:28;16.20;99.90
41922;DHT22;27609;51.002;5.354;2023-07-31T00:19:53;16.20;99.90
41922;DHT22;27609;51.002;5.354;2023-07-31T00:22:19;16.20;99.90
41922;DHT22;27609;51.002;5.354;2023-07-31T00:24:45;16.20;99.90
41922;DHT22;27609;51.002;5.354;2023-07-31T00:27:10;16.20;99.90
41922;DHT22;27609;51.002;5.354;2023-07-31T00:29:36;16.20;99.90
41922;DHT22;27609;51.002;5.354;2023-07-31T00:32:02;16.20;99.90
41922;DHT22;27609;51.002;5.354;2023-07-31T00:34:28;16.20;99.90
41922;DHT22;27609;51.002;5.354;2023-07-31T00:36:53;16.20;99.90
41922;DHT22;27609;51.002;5.354;2023-07-31T00:39:19;16.20;99.90
41922;DHT22;27609;51.002;5.354;2023-07-31T00:41:44;16.30;99.90
41922;DHT22;27609;51.002;5.354;2023-07-31T00:44:10;16.30;99.90
41922;DHT22;27609;51.002;5.354;2023-07-31T00:46:36;16.30;99.90
41922;DHT22;27609;51.002;5.354;2023-07-31T00:49:02;16.30;99.90
41922;DHT22;27609;51.002;5.354;2023-07-31T00:51:28;16.30;99.90
41922;DHT22;27609;51.002;5.354;2023-07-31T00:53:54;16.40;99.90
41922;DHT22;27609;51.002;5.354;2023-07-31T00:56:21;16.40;99.90
41922;DHT22;27609;51.002;5.354;2023-07-31T00:58:47;16.40;99.90
41922;DHT22;27609;51.002;5.354;2023-07-31T01:01:13;16.40;99.90
41922;DHT22;27609;51.002;5.354;2023-07-31T01:03:39;16.40;99.90
41922;DHT22;27609;51.002;5.354;2023-07-31T01:06:23;16.50;99.90
41922;DHT22;27609;51.002;5.354;2023-07-31T01:09:12;16.50;99.90
41922;DHT22;27609;51.002;5.354;2023-07-31T01:11:48;16.50;99.90
41922;DHT22;27609;51.002;5.354;2023-07-31T01:14:14;16.50;99.90
41922;DHT22;27609;51.002;5.354;2023-07-31T01:16:40;16.50;99.90
41922;DHT22;27609;51.002;5.354;2023-07-31T01:19:06;16.50;99.90
41922;DHT22;27609;51.002;5.354;2023-07-31T01:27:15;16.60;99.90
41922;DHT22;27609;51.002;5.354;2023-07-31T01:29:59;16.60;99.90
41922;DHT22;27609;51.002;5.354;2023-07-31T01:32:28;16.60;99.90
41922;DHT22;27609;51.002;5.354;2023-07-31T01:34:54;16.60;99.90
41922;DHT22;27609;51.002;5.354;2023-07-31T01:37:20;16.60;99.90
41922;DHT22;27609;51.002;5.354;2023-07-31T01:39:46;16.60;99.90
41922;DHT22;27609;51.002;5.354;2023-07-31T01:42:12;16.60;99.90
41922;DHT22;27609;51.002;5.354;2023-07-31T01:44:37;16.60;99.90
41922;DHT22;27609;51.002;5.354;2023-07-31T01:47:03;16.60;99.90
41922;DHT22;27609;51.002;5.354;2023-07-31T01:49:29;16.60;99.90
41922;DHT22;27609;51.002;5.354;2023-07-31T01:51:54;16.60;99.90
41922;DHT22;27609;51.002;5.354;2023-07-31T01:54:20;16.70;99.90
41922;DHT22;27609;51.002;5.354;2023-07-31T01:56:46;16.70;99.90
41922;DHT22;27609;51.002;5.354;2023-07-31T01:59:11;16.70;99.90
41922;DHT22;27609;51.002;5.354;2023-07-31T02:01:37;16.70;99.90
41922;DHT22;27609;51.002;5.354;2023-07-31T02:04:02;16.70;99.90
41922;DHT22;27609;51.002;5.354;2023-07-31T02:06:30;16.70;99.90
41922;DHT22;27609;51.002;5.354;2023-07-31T02:08:55;16.80;99.90
41922;DHT22;27609;51.002;5.354;2023-07-31T02:11:21;16.80;99.90
41922;DHT22;27609;51.002;5.354;2023-07-31T02:13:47;16.80;99.90
41922;DHT22;27609;51.002;5.354;2023-07-31T02:16:13;16.80;99.90
41922;DHT22;27609;51.002;5.354;2023-07-31T02:18:38;16.80;99.90
41922;DHT22;27609;51.002;5.354;2023-07-31T02:21:04;16.80;99.90
41922;DHT22;27609;51.002;5.354;2023-07-31T02:23:30;16.80;99.90
41922;DHT22;27609;51.002;5.354;2023-07-31T02:25:55;16.80;99.90
41922;DHT22;27609;51.002;5.354;2023-07-31T02:28:21;16.80;99.90
41922;DHT22;27609;51.002;5.354;2023-07-31T02:30:47;16.80;99.90
41922;DHT22;27609;51.002;5.354;2023-07-31T02:33:14;16.80;99.90
41922;DHT22;27609;51.002;5.354;2023-07-31T02:35:40;16.80;99.90
41922;DHT22;27609;51.002;5.354;2023-07-31T02:38:05;16.80;99.90
41922;DHT22;27609;51.002;5.354;2023-07-31T02:40:31;16.80;99.90
41922;DHT22;27609;51.002;5.354;2023-07-31T02:42:56;16.90;99.90
41922;DHT22;27609;51.002;5.354;2023-07-31T02:45:22;16.90;99.90
41922;DHT22;27609;51.002;5.354;2023-07-31T02:47:48;16.90;99.90
41922;DHT22;27609;51.002;5.354;2023-07-31T02:50:13;16.80;99.90
41922;DHT22;27609;51.002;5.354;2023-07-31T02:52:39;16.80;99.90
41922;DHT22;27609;51.002;5.354;2023-07-31T02:55:06;16.80;99.90
41922;DHT22;27609;51.002;5.354;2023-07-31T02:57:31;16.80;99.90
41922;DHT22;27609;51.002;5.354;2023-07-31T02:59:57;16.80;99.90
41922;DHT22;27609;51.002;5.354;2023-07-31T03:02:23;16.80;99.90
41922;DHT22;27609;51.002;5.354;2023-07-31T03:04:48;16.80;99.90
41922;DHT22;27609;51.002;5.354;2023-07-31T03:07:14;16.80;99.90
41922;DHT22;27609;51.002;5.354;2023-07-31T03:09:39;16.80;99.90
41922;DHT22;27609;51.002;5.354;2023-07-31T03:12:06;16.80;99.90
41922;DHT22;27609;51.002;5.354;2023-07-31T03:14:31;16.80;99.90
41922;DHT22;27609;51.002;5.354;2023-07-31T03:16:57;16.80;99.90
41922;DHT22;27609;51.002;5.354;2023-07-31T03:19:23;16.80;99.90
41922;DHT22;27609;51.002;5.354;2023-07-31T03:21:48;16.80;99.90
41922;DHT22;27609;51.002;5.354;2023-07-31T03:24:14;16.80;99.90
41922;DHT22;27609;51.002;5.354;2023-07-31T03:26:40;16.80;99.90
41922;DHT22;27609;51.002;5.354;2023-07-31T03:29:07;16.80;99.90
41922;DHT22;27609;51.002;5.354;2023-07-31T03:31:33;16.80;99.90
41922;DHT22;27609;51.002;5.354;2023-07-31T03:33:59;16.80;99.90
41922;DHT22;27609;51.002;5.354;2023-07-31T03:36:24;16.90;99.90
41922;DHT22;27609;51.002;5.354;2023-07-31T03:38:51;16.90;99.90
41922;DHT22;27609;51.002;5.354;2023-07-31T03:41:17;16.80;99.90
41922;DHT22;27609;51.002;5.354;2023-07-31T03:43:42;16.90;99.90
41922;DHT22;27609;51.002;5.354;2023-07-31T03:46:08;16.90;99.90
41922;DHT22;27609;51.002;5.354;2023-07-31T03:48:34;16.90;99.90
41922;DHT22;27609;51.002;5.354;2023-07-31T03:50:59;16.90;99.90
41922;DHT22;27609;51.002;5.354;2023-07-31T03:53:25;16.90;99.90
41922;DHT22;27609;51.002;5.354;2023-07-31T03:55:51;16.90;99.90
41922;DHT22;27609;51.002;5.354;2023-07-31T03:58:16;16.90;99.90
41922;DHT22;27609;51.002;5.354;2023-07-31T04:00:42;17.00;99.90
41922;DHT22;27609;51.002;5.354;2023-07-31T04:03:08;17.00;99.90
41922;DHT22;27609;51.002;5.354;2023-07-31T04:05:37;17.00;99.90
41922;DHT22;27609;51.002;5.354;2023-07-31T04:08:03;17.00;99.90
41922;DHT22;27609;51.002;5.354;2023-07-31T04:10:28;17.00;99.90
41922;DHT22;27609;51.002;5.354;2023-07-31T04:12:55;17.00;99.90
41922;DHT22;27609;51.002;5.354;2023-07-31T04:15:20;17.00;99.90
41922;DHT22;27609;51.002;5.354;2023-07-31T04:17:46;17.00;99.90
41922;DHT22;27609;51.002;5.354;2023-07-31T04:20:12;17.00;99.90
41922;DHT22;27609;51.002;5.354;2023-07-31T04:22:37;17.00;99.90
41922;DHT22;27609;51.002;5.354;2023-07-31T04:25:03;17.00;99.90
41922;DHT22;27609;51.002;5.354;2023-07-31T04:27:29;17.10;99.90
41922;DHT22;27609;51.002;5.354;2023-07-31T04:29:54;17.00;99.90
41922;DHT22;27609;51.002;5.354;2023-07-31T04:32:20;17.10;99.90
41922;DHT22;27609;51.002;5.354;2023-07-31T04:34:46;17.00;99.90
41922;DHT22;27609;51.002;5.354;2023-07-31T04:37:12;17.10;99.90
41922;DHT22;27609;51.002;5.354;2023-07-31T04:39:37;17.00;99.90
41922;DHT22;27609;51.002;5.354;2023-07-31T04:42:03;17.00;99.90
41922;DHT22;27609;51.002;5.354;2023-07-31T04:44:29;16.90;99.90
41922;DHT22;27609;51.002;5.354;2023-07-31T04:46:55;16.90;99.90
41922;DHT22;27609;51.002;5.354;2023-07-31T04:49:21;16.80;99.90
41922;DHT22;27609;51.002;5.354;2023-07-31T04:51:47;16.80;99.90
41922;DHT22;27609;51.002;5.354;2023-07-31T04:54:13;16.70;99.90
41922;DHT22;27609;51.002;5.354;2023-07-31T04:56:40;16.60;99.90
41922;DHT22;27609;51.002;5.354;2023-07-31T04:59:06;16.60;99.90
41922;DHT22;27609;51.002;5.354;2023-07-31T05:01:32;16.50;99.90
41922;DHT22;27609;51.002;5.354;2023-07-31T05:03:58;16.40;99.90
41922;DHT22;27609;51.002;5.354;2023-07-31T05:06:23;16.40;99.90
41922;DHT22;27609;51.002;5.354;2023-07-31T05:08:49;16.40;99.90
41922;DHT22;27609;51.002;5.354;2023-07-31T05:11:15;16.40;99.90
41922;DHT22;27609;51.002;5.354;2023-07-31T05:13:41;16.40;99.90
41922;DHT22;27609;51.002;5.354;2023-07-31T05:16:07;16.30;99.90
41922;DHT22;27609;51.002;5.354;2023-07-31T05:18:32;16.30;99.90
41922;DHT22;27609;51.002;5.354;2023-07-31T05:20:58;16.30;99.90
41922;DHT22;27609;51.002;5.354;2023-07-31T05:23:24;16.30;99.90
41922;DHT22;27609;51.002;5.354;2023-07-31T05:25:49;16.40;99.90
41922;DHT22;27609;51.002;5.354;2023-07-31T05:28:15;16.40;99.90
41922;DHT22;27609;51.002;5.354;2023-07-31T05:30:40;16.40;99.90
41922;DHT22;27609;51.002;5.354;2023-07-31T05:33:06;16.40;99.90
41922;DHT22;27609;51.002;5.354;2023-07-31T05:35:32;16.40;99.90
41922;DHT22;27609;51.002;5.354;2023-07-31T05:37:57;16.40;99.90
41922;DHT22;27609;51.002;5.354;2023-07-31T05:40:23;16.40;99.90
41922;DHT22;27609;51.002;5.354;2023-07-31T05:42:49;16.40;99.90
41922;DHT22;27609;51.002;5.354;2023-07-31T05:45:14;16.40;99.90
41922;DHT22;27609;51.002;5.354;2023-07-31T05:47:40;16.40;99.90
41922;DHT22;27609;51.002;5.354;2023-07-31T05:50:06;16.40;99.90
41922;DHT22;27609;51.002;5.354;2023-07-31T05:52:32;16.40;99.90
41922;DHT22;27609;51.002;5.354;2023-07-31T05:54:57;16.40;99.90
41922;DHT22;27609;51.002;5.354;2023-07-31T05:57:23;16.50;99.90
41922;DHT22;27609;51.002;5.354;2023-07-31T05:59:49;16.40;99.90
41922;DHT22;27609;51.002;5.354;2023-07-31T06:02:14;16.40;99.90
41922;DHT22;27609;51.002;5.354;2023-07-31T06:04:40;16.40;99.90
41922;DHT22;27609;51.002;5.354;2023-07-31T06:07:06;16.40;99.90
41922;DHT22;27609;51.002;5.354;2023-07-31T06:09:31;16.40;99.90
41922;DHT22;27609;51.002;5.354;2023-07-31T06:11:57;16.40;99.90
41922;DHT22;27609;51.002;5.354;2023-07-31T06:14:23;16.30;99.90
41922;DHT22;27609;51.002;5.354;2023-07-31T06:16:48;16.30;99.90
41922;DHT22;27609;51.002;5.354;2023-07-31T06:19:14;16.30;99.90
41922;DHT22;27609;51.002;5.354;2023-07-31T06:21:39;16.30;99.90
41922;DHT22;27609;51.002;5.354;2023-07-31T06:24:07;16.30;99.90
41922;DHT22;27609;51.002;5.354;2023-07-31T06:26:33;16.20;99.90
41922;DHT22;27609;51.002;5.354;2023-07-31T06:28:59;16.20;99.90
41922;DHT22;27609;51.002;5.354;2023-07-31T06:31:24;16.20;99.90
41922;DHT22;27609;51.002;5.354;2023-07-31T06:33:52;16.10;99.90
41922;DHT22;27609;51.002;5.354;2023-07-31T06:36:18;16.10;99.90
41922;DHT22;27609;51.002;5.354;2023-07-31T06:38:43;16.10;99.90
41922;DHT22;27609;51.002;5.354;2023-07-31T06:41:09;16.00;99.90
41922;DHT22;27609;51.002;5.354;2023-07-31T06:43:36;16.00;99.90
41922;DHT22;27609;51.002;5.354;2023-07-31T06:46:08;16.00;99.90
41922;DHT22;27609;51.002;5.354;2023-07-31T06:48:34;16.00;99.90
41922;DHT22;27609;51.002;5.354;2023-07-31T06:51:01;16.00;99.90
41922;DHT22;27609;51.002;5.354;2023-07-31T06:53:26;16.10;99.90
41922;DHT22;27609;51.002;5.354;2023-07-31T06:55:52;16.00;99.90
41922;DHT22;27609;51.002;5.354;2023-07-31T06:58:18;16.10;99.90
41922;DHT22;27609;51.002;5.354;2023-07-31T07:00:44;16.10;99.90
41922;DHT22;27609;51.002;5.354;2023-07-31T07:03:09;16.20;99.90
41922;DHT22;27609;51.002;5.354;2023-07-31T07:05:35;16.10;99.90
41922;DHT22;27609;51.002;5.354;2023-07-31T07:08:00;16.20;99.90
41922;DHT22;27609;51.002;5.354;2023-07-31T07:10:26;16.20;99.90
41922;DHT22;27609;51.002;5.354;2023-07-31T07:12:52;16.20;99.90
41922;DHT22;27609;51.002;5.354;2023-07-31T07:15:18;16.20;99.90
41922;DHT22;27609;51.002;5.354;2023-07-31T07:17:44;16.20;99.90
41922;DHT22;27609;51.002;5.354;2023-07-31T07:20:09;16.30;99.90
41922;DHT22;27609;51.002;5.354;2023-07-31T07:22:35;16.20;99.90
41922;DHT22;27609;51.002;5.354;2023-07-31T07:25:01;16.30;99.90
41922;DHT22;27609;51.002;5.354;2023-07-31T07:27:27;16.40;99.90
41922;DHT22;27609;51.002;5.354;2023-07-31T07:29:53;16.40;99.90
41922;DHT22;27609;51.002;5.354;2023-07-31T07:32:19;16.50;99.90
41922;DHT22;27609;51.002;5.354;2023-07-31T07:34:44;16.40;99.90
41922;DHT22;27609;51.002;5.354;2023-07-31T07:37:10;16.40;99.90
41922;DHT22;27609;51.002;5.354;2023-07-31T07:39:35;16.40;99.90
41922;DHT22;27609;51.002;5.354;2023-07-31T07:42:01;16.30;99.90
41922;DHT22;27609;51.002;5.354;2023-07-31T07:44:27;16.30;99.90
41922;DHT22;27609;51.002;5.354;2023-07-31T07:46:52;16.30;99.90
41922;DHT22;27609;51.002;5.354;2023-07-31T07:49:18;16.20;99.90
41922;DHT22;27609;51.002;5.354;2023-07-31T07:51:44;16.20;99.90
41922;DHT22;27609;51.002;5.354;2023-07-31T07:54:09;16.30;99.90
41922;DHT22;27609;51.002;5.354;2023-07-31T07:56:35;16.30;99.90
41922;DHT22;27609;51.002;5.354;2023-07-31T07:59:01;16.30;99.90
41922;DHT22;27609;51.002;5.354;2023-07-31T08:01:27;16.30;99.90
41922;DHT22;27609;51.002;5.354;2023-07-31T08:03:53;16.40;99.90
41922;DHT22;27609;51.002;5.354;2023-07-31T08:06:19;16.40;99.90
41922;DHT22;27609;51.002;5.354;2023-07-31T08:08:44;16.40;99.90
41922;DHT22;27609;51.002;5.354;2023-07-31T08:11:10;16.50;99.90
41922;DHT22;27609;51.002;5.354;2023-07-31T08:13:36;16.50;99.90
41922;DHT22;27609;51.002;5.354;2023-07-31T08:16:04;16.60;99.90
41922;DHT22;27609;51.002;5.354;2023-07-31T08:18:31;16.60;99.90
41922;DHT22;27609;51.002;5.354;2023-07-31T08:20:57;16.60;99.90
41922;DHT22;27609;51.002;5.354;2023-07-31T08:23:23;16.60;99.90
41922;DHT22;27609;51.002;5.354;2023-07-31T08:25:48;16.60;99.90
41922;DHT22;27609;51.002;5.354;2023-07-31T08:28:16;16.70;99.90
41922;DHT22;27609;51.002;5.354;2023-07-31T08:30:42;16.70;99.90
41922;DHT22;27609;51.002;5.354;2023-07-31T08:33:08;16.80;99.90
41922;DHT22;27609;51.002;5.354;2023-07-31T08:35:34;16.90;99.90
41922;DHT22;27609;51.002;5.354;2023-07-31T08:37:59;16.90;99.90
41922;DHT22;27609;51.002;5.354;2023-07-31T08:40:25;17.00;99.90
41922;DHT22;27609;51.002;5.354;2023-07-31T08:42:53;17.10;99.90
41922;DHT22;27609;51.002;5.354;2023-07-31T08:45:20;17.20;99.90
41922;DHT22;27609;51.002;5.354;2023-07-31T08:47:47;17.10;99.90
41922;DHT22;27609;51.002;5.354;2023-07-31T08:50:15;17.20;99.90
41922;DHT22;27609;51.002;5.354;2023-07-31T08:52:40;17.20;99.90
41922;DHT22;27609;51.002;5.354;2023-07-31T08:55:07;17.10;99.90
41922;DHT22;27609;51.002;5.354;2023-07-31T08:57:36;17.00;99.90
41922;DHT22;27609;51.002;5.354;2023-07-31T09:00:03;17.10;99.90
41922;DHT22;27609;51.002;5.354;2023-07-31T09:02:36;17.00;99.90
41922;DHT22;27609;51.002;5.354;2023-07-31T09:05:04;17.10;99.90
41922;DHT22;27609;51.002;5.354;2023-07-31T09:07:31;17.20;99.90
41922;DHT22;27609;51.002;5.354;2023-07-31T09:09:59;17.30;99.90
41922;DHT22;27609;51.002;5.354;2023-07-31T09:12:25;17.40;99.90
41922;DHT22;27609;51.002;5.354;2023-07-31T09:14:51;17.40;99.90
41922;DHT22;27609;51.002;5.354;2023-07-31T09:17:32;17.30;99.90
41922;DHT22;27609;51.002;5.354;2023-07-31T09:19:58;17.30;99.90
41922;DHT22;27609;51.002;5.354;2023-07-31T09:22:37;17.30;99.90
41922;DHT22;27609;51.002;5.354;2023-07-31T09:25:20;17.40;99.90
41922;DHT22;27609;51.002;5.354;2023-07-31T09:27:58;17.30;99.90
41922;DHT22;27609;51.002;5.354;2023-07-31T09:30:24;17.30;99.90
41922;DHT22;27609;51.002;5.354;2023-07-31T09:32:51;17.10;99.90
41922;DHT22;27609;51.002;5.354;2023-07-31T09:37:59;17.10;99.90
41922;DHT22;27609;51.002;5.354;2023-07-31T09:40:38;17.00;99.90
41922;DHT22;27609;51.002;5.354;2023-07-31T09:43:11;16.90;99.90
41922;DHT22;27609;51.002;5.354;2023-07-31T09:45:42;17.00;99.90
41922;DHT22;27609;51.002;5.354;2023-07-31T09:48:17;17.10;99.90
41922;DHT22;27609;51.002;5.354;2023-07-31T09:50:45;17.20;99.90
41922;DHT22;27609;51.002;5.354;2023-07-31T09:53:12;17.30;99.90
41922;DHT22;27609;51.002;5.354;2023-07-31T09:55:39;17.20;99.90
41922;DHT22;27609;51.002;5.354;2023-07-31T09:58:08;17.20;99.90
41922;DHT22;27609;51.002;5.354;2023-07-31T10:00:34;17.40;99.90
41922;DHT22;27609;51.002;5.354;2023-07-31T10:03:04;17.50;99.90
41922;DHT22;27609;51.002;5.354;2023-07-31T10:05:39;17.60;99.90
41922;DHT22;27609;51.002;5.354;2023-07-31T10:08:07;17.60;99.90
41922;DHT22;27609;51.002;5.354;2023-07-31T10:10:36;17.70;99.90
41922;DHT22;27609;51.002;5.354;2023-07-31T10:13:04;17.80;99.90
41922;DHT22;27609;51.002;5.354;2023-07-31T10:15:30;17.80;99.90
41922;DHT22;27609;51.002;5.354;2023-07-31T10:17:58;17.80;99.90
41922;DHT22;27609;51.002;5.354;2023-07-31T10:20:24;18.00;99.90
41922;DHT22;27609;51.002;5.354;2023-07-31T10:22:52;17.90;99.90
41922;DHT22;27609;51.002;5.354;2023-07-31T10:25:19;17.90;99.90
41922;DHT22;27609;51.002;5.354;2023-07-31T10:27:47;17.80;99.90
41922;DHT22;27609;51.002;5.354;2023-07-31T10:30:16;17.90;99.90
41922;DHT22;27609;51.002;5.354;2023-07-31T10:32:44;18.00;99.90
41922;DHT22;27609;51.002;5.354;2023-07-31T10:35:11;18.20;99.90
41922;DHT22;27609;51.002;5.354;2023-07-31T10:37:41;18.70;99.90
41922;DHT22;27609;51.002;5.354;2023-07-31T10:40:17;19.10;99.90
41922;DHT22;27609;51.002;5.354;2023-07-31T10:42:48;19.60;99.90
41922;DHT22;27609;51.002;5.354;2023-07-31T10:45:33;19.60;99.90
41922;DHT22;27609;51.002;5.354;2023-07-31T10:48:03;19.30;99.90
41922;DHT22;27609;51.002;5.354;2023-07-31T10:50:30;19.20;99.90
41922;DHT22;27609;51.002;5.354;2023-07-31T10:52:58;19.00;99.90
41922;DHT22;27609;51.002;5.354;2023-07-31T10:55:33;18.60;99.90
41922;DHT22;27609;51.002;5.354;2023-07-31T10:58:06;18.50;99.90
41922;DHT22;27609;51.002;5.354;2023-07-31T11:00:32;18.50;99.90
41922;DHT22;27609;51.002;5.354;2023-07-31T11:03:08;18.50;99.90
41922;DHT22;27609;51.002;5.354;2023-07-31T11:06:00;18.50;99.90
41922;DHT22;27609;51.002;5.354;2023-07-31T11:08:33;18.50;99.90
41922;DHT22;27609;51.002;5.354;2023-07-31T11:13:32;18.40;99.90
41922;DHT22;27609;51.002;5.354;2023-07-31T11:15:59;18.50;99.90
41922;DHT22;27609;51.002;5.354;2023-07-31T11:18:26;18.60;99.90
41922;DHT22;27609;51.002;5.354;2023-07-31T11:20:52;18.70;99.90
41922;DHT22;27609;51.002;5.354;2023-07-31T11:23:19;18.80;99.90
41922;DHT22;27609;51.002;5.354;2023-07-31T11:25:46;19.00;99.90
41922;DHT22;27609;51.002;5.354;2023-07-31T11:28:13;19.10;99.90
41922;DHT22;27609;51.002;5.354;2023-07-31T11:30:43;19.10;99.90
41922;DHT22;27609;51.002;5.354;2023-07-31T11:33:11;19.10;99.90
41922;DHT22;27609;51.002;5.354;2023-07-31T11:35:43;19.20;99.90
41922;DHT22;27609;51.002;5.354;2023-07-31T11:40:49;19.40;99.90
41922;DHT22;27609;51.002;5.354;2023-07-31T11:43:15;19.50;99.90
41922;DHT22;27609;51.002;5.354;2023-07-31T11:45:48;19.50;99.90
41922;DHT22;27609;51.002;5.354;2023-07-31T11:48:25;19.60;99.90
41922;DHT22;27609;51.002;5.354;2023-07-31T11:50:54;19.80;99.90
41922;DHT22;27609;51.002;5.354;2023-07-31T11:53:44;19.80;99.90
41922;DHT22;27609;51.002;5.354;2023-07-31T11:56:13;19.70;99.90
41922;DHT22;27609;51.002;5.354;2023-07-31T11:58:40;19.70;99.90
41922;DHT22;27609;51.002;5.354;2023-07-31T12:01:06;19.90;99.90
41922;DHT22;27609;51.002;5.354;2023-07-31T12:03:33;19.80;99.90
41922;DHT22;27609;51.002;5.354;2023-07-31T12:05:59;19.80;99.90
41922;DHT22;27609;51.002;5.354;2023-07-31T12:08:25;19.90;99.90
41922;DHT22;27609;51.002;5.354;2023-07-31T12:10:54;19.90;99.90
41922;DHT22;27609;51.002;5.354;2023-07-31T12:13:25;19.70;99.90
41922;DHT22;27609;51.002;5.354;2023-07-31T12:15:56;19.60;99.90
41922;DHT22;27609;51.002;5.354;2023-07-31T12:18:27;19.70;99.90
41922;DHT22;27609;51.002;5.354;2023-07-31T12:20:57;19.80;99.90
41922;DHT22;27609;51.002;5.354;2023-07-31T12:23:25;19.80;99.90
41922;DHT22;27609;51.002;5.354;2023-07-31T12:28:26;19.70;99.90
41922;DHT22;27609;51.002;5.354;2023-07-31T12:30:57;19.70;99.90
41922;DHT22;27609;51.002;5.354;2023-07-31T12:33:23;19.60;99.90
41922;DHT22;27609;51.002;5.354;2023-07-31T12:35:49;19.80;99.90
41922;DHT22;27609;51.002;5.354;2023-07-31T12:38:15;20.10;99.90
41922;DHT22;27609;51.002;5.354;2023-07-31T12:40:41;20.20;99.90
41922;DHT22;27609;51.002;5.354;2023-07-31T12:43:08;20.50;99.90
41922;DHT22;27609;51.002;5.354;2023-07-31T12:45:34;20.90;99.90
41922;DHT22;27609;51.002;5.354;2023-07-31T12:48:01;21.10;99.90
41922;DHT22;27609;51.002;5.354;2023-07-31T12:50:27;21.70;99.90
41922;DHT22;27609;51.002;5.354;2023-07-31T12:52:57;21.70;99.90
41922;DHT22;27609;51.002;5.354;2023-07-31T12:55:23;21.50;99.90
41922;DHT22;27609;51.002;5.354;2023-07-31T12:57:49;21.20;99.90
41922;DHT22;27609;51.002;5.354;2023-07-31T13:00:15;20.90;99.90
41922;DHT22;27609;51.002;5.354;2023-07-31T13:02:41;20.70;99.90
41922;DHT22;27609;51.002;5.354;2023-07-31T13:05:07;20.40;99.90
41922;DHT22;27609;51.002;5.354;2023-07-31T13:07:33;20.20;99.90
41922;DHT22;27609;51.002;5.354;2023-07-31T13:09:58;20.10;99.90
41922;DHT22;27609;51.002;5.354;2023-07-31T13:12:24;20.00;99.90
41922;DHT22;27609;51.002;5.354;2023-07-31T13:14:50;19.80;99.90
41922;DHT22;27609;51.002;5.354;2023-07-31T13:17:16;19.80;99.90
41922;DHT22;27609;51.002;5.354;2023-07-31T13:19:42;19.80;99.90
41922;DHT22;27609;51.002;5.354;2023-07-31T13:22:08;19.90;99.90
41922;DHT22;27609;51.002;5.354;2023-07-31T13:24:33;19.90;99.90
41922;DHT22;27609;51.002;5.354;2023-07-31T13:26:59;19.90;99.90
41922;DHT22;27609;51.002;5.354;2023-07-31T13:29:25;20.00;99.90
41922;DHT22;27609;51.002;5.354;2023-07-31T13:31:52;20.00;99.90
41922;DHT22;27609;51.002;5.354;2023-07-31T13:34:18;19.90;99.90
41922;DHT22;27609;51.002;5.354;2023-07-31T13:36:44;19.80;99.90
41922;DHT22;27609;51.002;5.354;2023-07-31T13:39:09;19.70;99.90
41922;DHT22;27609;51.002;5.354;2023-07-31T13:41:35;19.80;99.90
41922;DHT22;27609;51.002;5.354;2023-07-31T13:44:01;19.80;99.90
41922;DHT22;27609;51.002;5.354;2023-07-31T13:46:26;19.80;99.90
41922;DHT22;27609;51.002;5.354;2023-07-31T13:48:52;19.80;99.90
41922;DHT22;27609;51.002;5.354;2023-07-31T13:51:21;19.80;99.90
41922;DHT22;27609;51.002;5.354;2023-07-31T13:53:47;19.70;99.90
41922;DHT22;27609;51.002;5.354;2023-07-31T13:56:13;19.80;99.90
41922;DHT22;27609;51.002;5.354;2023-07-31T13:58:39;19.70;99.90
41922;DHT22;27609;51.002;5.354;2023-07-31T14:01:04;19.70;99.90
41922;DHT22;27609;51.002;5.354;2023-07-31T14:03:31;19.80;99.90
41922;DHT22;27609;51.002;5.354;2023-07-31T14:05:57;19.80;99.90
41922;DHT22;27609;51.002;5.354;2023-07-31T14:08:22;19.60;99.90
41922;DHT22;27609;51.002;5.354;2023-07-31T14:10:48;19.70;99.90
41922;DHT22;27609;51.002;5.354;2023-07-31T14:13:14;19.70;99.90
41922;DHT22;27609;51.002;5.354;2023-07-31T14:15:42;19.60;99.90
41922;DHT22;27609;51.002;5.354;2023-07-31T14:18:08;19.60;99.90
41922;DHT22;27609;51.002;5.354;2023-07-31T14:20:34;19.60;99.90
41922;DHT22;27609;51.002;5.354;2023-07-31T14:22:59;19.30;99.90
41922;DHT22;27609;51.002;5.354;2023-07-31T14:25:25;19.10;99.90
41922;DHT22;27609;51.002;5.354;2023-07-31T14:27:51;18.90;99.90
41922;DHT22;27609;51.002;5.354;2023-07-31T14:30:16;18.70;99.90
41922;DHT22;27609;51.002;5.354;2023-07-31T14:32:43;18.50;99.90
41922;DHT22;27609;51.002;5.354;2023-07-31T14:35:09;18.40;99.90
41922;DHT22;27609;51.002;5.354;2023-07-31T14:37:43;18.30;99.90
41922;DHT22;27609;51.002;5.354;2023-07-31T14:40:10;18.20;99.90
41922;DHT22;27609;51.002;5.354;2023-07-31T14:42:37;18.10;99.90
41922;DHT22;27609;51.002;5.354;2023-07-31T14:45:06;18.00;99.90
41922;DHT22;27609;51.002;5.354;2023-07-31T14:47:33;18.00;99.90
41922;DHT22;27609;51.002;5.354;2023-07-31T14:49:59;18.00;99.90
41922;DHT22;27609;51.002;5.354;2023-07-31T14:52:25;18.00;99.90
41922;DHT22;27609;51.002;5.354;2023-07-31T14:54:52;18.00;99.90
41922;DHT22;27609;51.002;5.354;2023-07-31T14:57:17;17.90;99.90
41922;DHT22;27609;51.002;5.354;2023-07-31T14:59:44;18.00;99.90
41922;DHT22;27609;51.002;5.354;2023-07-31T15:02:09;18.00;99.90
41922;DHT22;27609;51.002;5.354;2023-07-31T15:04:35;17.90;99.90
41922;DHT22;27609;51.002;5.354;2023-07-31T15:07:01;17.90;99.90
41922;DHT22;27609;51.002;5.354;2023-07-31T15:09:27;17.90;99.90
41922;DHT22;27609;51.002;5.354;2023-07-31T15:11:53;17.80;99.90
41922;DHT22;27609;51.002;5.354;2023-07-31T15:14:19;17.80;99.90
41922;DHT22;27609;51.002;5.354;2023-07-31T15:16:45;17.80;99.90
41922;DHT22;27609;51.002;5.354;2023-07-31T15:19:11;17.70;99.90
41922;DHT22;27609;51.002;5.354;2023-07-31T15:21:37;17.70;99.90
41922;DHT22;27609;51.002;5.354;2023-07-31T15:24:04;17.60;99.90
41922;DHT22;27609;51.002;5.354;2023-07-31T15:26:30;17.60;99.90
41922;DHT22;27609;51.002;5.354;2023-07-31T15:29:01;17.60;99.90
41922;DHT22;27609;51.002;5.354;2023-07-31T15:31:29;17.60;99.90
41922;DHT22;27609;51.002;5.354;2023-07-31T15:33:55;17.60;99.90
41922;DHT22;27609;51.002;5.354;2023-07-31T15:36:20;17.60;99.90
41922;DHT22;27609;51.002;5.354;2023-07-31T15:38:46;17.60;99.90
41922;DHT22;27609;51.002;5.354;2023-07-31T15:41:19;17.60;99.90
41922;DHT22;27609;51.002;5.354;2023-07-31T15:43:45;17.50;99.90